Time;durP1;ratioP1;P1;durP2;ratioP2;P2;SDS_P1;SDS_P2;PMS_P1;PMS_P2;Temp;Humidity;BMP_temperature;BMP_pressure;BME280_temperature;BME280_humidity;BME280_pressure;Samples;Min_cycle;Max_cycle;Signal;HPM_P1;HPM_P2
2022/10/14 00:00:54;;;;;;;;;;;;;;;;;;5039327;28;19912;-88
2022/10/14 00:03:20;;;;;;;;;;;;;;;;;;5055446;28;20304;-90
2022/10/14 00:05:45;;;;;;;;;;;;;;;;;;5063618;28;20276;-87
2022/10/14 00:08:11;;;;;;;;;;;;;;;;;;5040451;28;19917;-90
2022/10/14 00:10:36;;;;;;;;;;;;;;;;;;5048734;28;19912;-89
2022/10/14 00:13:02;;;;;;;;;;;;;;;;;;5064238;28;19966;-88
2022/10/14 00:15:27;;;;;;;;;;;;;;;;;;5047819;28;19974;-88
2022/10/14 00:17:52;;;;;;;;;;;;;;;;;;5026054;28;19920;-89
2022/10/14 00:20:18;;;;;;;;;;;;;;;;;;5047166;28;19920;-88
2022/10/14 00:22:43;;;;;;;;;;;;;;;;;;5062970;28;19920;-87
2022/10/14 00:25:09;;;;;;;;;;;;;;;;;;5078997;28;19916;-89
2022/10/14 00:27:37;;;;;;;;;;;;;;;;;;5079450;28;20355;-88
2022/10/14 00:30:02;;;;;;;;;;;;;;;;;;5082214;28;19919;-88
2022/10/14 00:32:28;;;;;;;;;;;;;;;;;;5091476;28;20048;-88
2022/10/14 00:34:53;;;;;;;;;;;;;;;;;;5073439;28;19983;-87
2022/10/14 00:37:19;;;;;;;;;;;;;;;;;;5076331;28;20370;-87
2022/10/14 00:39:44;;;;;;;;;;;;;;;;;;5079101;28;20058;-89
2022/10/14 00:42:10;;;;;;;;;;;;;;;;;;5088287;28;19918;-88
2022/10/14 00:44:35;;;;;;;;;;;;;;;;;;5106240;28;19923;-87
2022/10/14 00:47:01;;;;;;;;;;;;;;;;;;5079762;28;20364;-88
2022/10/14 00:49:26;;;;;;;;;;;;;;;;;;5076096;28;20363;-89
2022/10/14 00:51:51;;;;;;;;;;;;;;;;;;5074061;28;19923;-88
2022/10/14 00:54:17;;;;;;;;;;;;;;;;;;5077099;28;19947;-87
2022/10/14 00:56:43;;;;;;;;;;;;;;;;;;5072887;28;19912;-87
2022/10/14 00:59:08;;;;;;;;;;;;;;;;;;5090179;28;19919;-87
2022/10/14 01:01:34;;;;;;;;;;;;;;;;;;5074474;28;19913;-87
2022/10/14 01:03:59;;;;;;;;;;;;;;;;;;5075184;28;19916;-88
2022/10/14 01:06:24;;;;;;;;;;;;;;;;;;5077116;28;19920;-87
2022/10/14 01:08:51;;;;;;;;;;;;;;;;;;5093515;28;19923;-88
2022/10/14 01:11:16;;;;;;;;;;;;;;;;;;5078384;28;19917;-88
2022/10/14 01:13:42;;;;;;;;;;;;;;;;;;5095700;28;20039;-87
2022/10/14 01:16:09;;;;;;;;;;;;;;;;;;5094635;28;19913;-89
2022/10/14 01:18:35;;;;;;;;;;;;;;;;;;5084913;28;19912;-88
2022/10/14 01:21:01;;;;;;;;;;;;;;;;;;5105862;28;20011;-89
2022/10/14 01:23:26;;;;;;;;;;;;;;;;;;5094894;28;19908;-88
2022/10/14 01:25:52;;;;;;;;;;;;;;;;;;5111942;28;19912;-88
2022/10/14 01:28:17;;;;;;;;;;;;;;;;;;5093342;28;19912;-91
2022/10/14 01:30:42;;;;;;;;;;;;;;;;;;5084786;28;19956;-88
2022/10/14 01:33:08;;;;;;;;;;;;;;;;;;5083650;28;19913;-88
2022/10/14 01:35:33;;;;;;;;;;;;;;;;;;5065170;28;19962;-88
2022/10/14 01:37:59;;;;;;;;;;;;;;;;;;5066152;28;19927;-88
2022/10/14 01:40:24;;;;;;;;;;;;;;;;;;5065029;28;19913;-89
2022/10/14 01:42:49;;;;;;;;;;;;;;;;;;5066769;28;19956;-89
2022/10/14 01:45:15;;;;;;;;;;;;;;;;;;5053420;28;20166;-90
2022/10/14 01:47:40;;;;;;;;;;;;;;;;;;5070392;28;19988;-87
2022/10/14 01:50:06;;;;;;;;;;;;;;;;;;5072698;28;19923;-87
2022/10/14 01:52:32;;;;;;;;;;;;;;;;;;5080322;28;19920;-90
2022/10/14 01:54:57;;;;;;;;;;;;;;;;;;5074155;28;19917;-88
2022/10/14 01:57:23;;;;;;;;;;;;;;;;;;5091950;28;20379;-89
2022/10/14 01:59:49;;;;;;;;;;;;;;;;;;5074668;28;19913;-89
2022/10/14 02:02:15;;;;;;;;;;;;;;;;;;5074625;28;19913;-88
2022/10/14 02:04:41;;;;;;;;;;;;;;;;;;5092585;28;20059;-89
2022/10/14 02:07:06;;;;;;;;;;;;;;;;;;5075768;28;20410;-88
2022/10/14 02:09:31;;;;;;;;;;;;;;;;;;5099988;23;19931;-87
2022/10/14 02:11:57;;;;;;;;;;;;;;;;;;5075386;28;19966;-87
2022/10/14 02:14:22;;;;;;;;;;;;;;;;;;5074679;28;19912;-87
2022/10/14 02:16:48;;;;;;;;;;;;;;;;;;5074864;28;19959;-87
2022/10/14 02:19:14;;;;;;;;;;;;;;;;;;5071525;28;19916;-86
2022/10/14 02:21:40;;;;;;;;;;;;;;;;;;5071545;28;19913;-86
2022/10/14 02:24:25;;;;;;;;;;;;;;;;;;5071769;28;19924;-86
2022/10/14 02:26:50;;;;;;;;;;;;;;;;;;5090236;28;19923;-86
2022/10/14 02:29:16;;;;;;;;;;;;;;;;;;5074590;28;19940;-85
2022/10/14 02:31:41;;;;;;;;;;;;;;;;;;5074626;28;19912;-84
2022/10/14 02:34:07;;;;;;;;;;;;;;;;;;5091119;28;20003;-85
2022/10/14 02:36:32;;;;;;;;;;;;;;;;;;5091411;28;19954;-83
2022/10/14 02:38:58;;;;;;;;;;;;;;;;;;5074456;28;19908;-85
2022/10/14 02:41:23;;;;;;;;;;;;;;;;;;5073262;28;19912;-84
2022/10/14 02:43:48;;;;;;;;;;;;;;;;;;5090758;28;20019;-85
2022/10/14 02:46:14;;;;;;;;;;;;;;;;;;5092114;28;19912;-84
2022/10/14 02:48:39;;;;;;;;;;;;;;;;;;5091102;28;19935;-83
2022/10/14 02:51:05;;;;;;;;;;;;;;;;;;5107682;28;19998;-83
2022/10/14 02:53:30;;;;;;;;;;;;;;;;;;5091766;28;19919;-84
2022/10/14 02:55:57;;;;;;;;;;;;;;;;;;5091024;28;19935;-83
2022/10/14 02:58:22;;;;;;;;;;;;;;;;;;5098196;28;20370;-84
2022/10/14 03:00:48;;;;;;;;;;;;;;;;;;5101925;28;19968;-84
2022/10/14 03:03:14;;;;;;;;;;;;;;;;;;5106755;28;19912;-82
2022/10/14 03:05:39;;;;;;;;;;;;;;;;;;5106109;28;19912;-84
2022/10/14 03:08:10;;;;;;;;;;;;;;;;;;5100455;28;19960;-84
2022/10/14 03:10:37;;;;;;;;;;;;;;;;;;5097502;28;19912;-84
2022/10/14 03:13:02;;;;;;;;;;;;;;;;;;5092732;28;19965;-83
2022/10/14 03:15:34;;;;;;;;;;;;;;;;;;5074855;28;19909;-84
2022/10/14 03:17:59;;;;;;;;;;;;;;;;;;5074909;28;20383;-84
2022/10/14 03:20:33;;;;;;;;;;;;;;;;;;5074524;28;19912;-85
2022/10/14 03:22:59;;;;;;;;;;;;;;;;;;5073606;28;19912;-84
2022/10/14 03:25:25;;;;;;;;;;;;;;;;;;5073472;28;20075;-85
2022/10/14 03:27:56;;;;;;;;;;;;;;;;;;5073857;28;19952;-86
2022/10/14 03:30:34;;;;;;;;;;;;;;;;;;5074528;28;19919;-85
2022/10/14 03:33:05;;;;;;;;;;;;;;;;;;5090030;28;19912;-85
2022/10/14 03:35:52;;;;;;;;;;;;;;;;;;5090465;28;20435;-85
2022/10/14 03:38:24;;;;;;;;;;;;;;;;;;5090368;28;19961;-86
2022/10/14 03:40:49;;;;;;;;;;;;;;;;;;5090548;28;19912;-85
2022/10/14 03:43:15;;;;;;;;;;;;;;;;;;5089884;28;19917;-86
2022/10/14 03:45:58;;;;;;;;;;;;;;;;;;5074258;28;19957;-86
2022/10/14 03:48:24;;;;;;;;;;;;;;;;;;5093748;28;20261;-84
2022/10/14 03:50:53;;;;;;;;;;;;;;;;;;5093650;28;19914;-85
2022/10/14 03:53:19;;;;;;;;;;;;;;;;;;5094426;28;20340;-86
2022/10/14 03:55:44;;;;;;;;;;;;;;;;;;5093432;28;19912;-85
2022/10/14 03:58:10;;;;;;;;;;;;;;;;;;5093363;28;20375;-85
2022/10/14 04:00:36;;;;;;;;;;;;;;;;;;5110730;28;19919;-85
2022/10/14 04:03:21;;;;;;;;;;;;;;;;;;5076173;28;20148;-85
2022/10/14 04:05:47;;;;;;;;;;;;;;;;;;5094031;28;20363;-86
2022/10/14 04:08:19;;;;;;;;;;;;;;;;;;5075022;28;20413;-86
2022/10/14 04:10:51;;;;;;;;;;;;;;;;;;5080658;28;19919;-84
2022/10/14 04:13:16;;;;;;;;;;;;;;;;;;5082356;28;19913;-86
2022/10/14 04:15:41;;;;;;;;;;;;;;;;;;5081312;28;19913;-85
2022/10/14 04:18:27;;;;;;;;;;;;;;;;;;5073695;28;19966;-86
2022/10/14 04:20:55;;;;;;;;;;;;;;;;;;5072767;28;19913;-86
2022/10/14 04:23:23;;;;;;;;;;;;;;;;;;5089815;28;19915;-86
2022/10/14 04:25:52;;;;;;;;;;;;;;;;;;5092599;28;19916;-85
2022/10/14 04:28:18;;;;;;;;;;;;;;;;;;5092468;28;19912;-86
2022/10/14 04:30:48;;;;;;;;;;;;;;;;;;5092574;28;19912;-85
2022/10/14 04:33:21;;;;;;;;;;;;;;;;;;5092262;28;19916;-85
2022/10/14 04:35:48;;;;;;;;;;;;;;;;;;5092400;28;19919;-85
2022/10/14 04:38:20;;;;;;;;;;;;;;;;;;5092371;28;19912;-84
2022/10/14 04:40:52;;;;;;;;;;;;;;;;;;5076088;28;20011;-84
2022/10/14 04:43:18;;;;;;;;;;;;;;;;;;5071362;28;19996;-84
2022/10/14 04:45:44;;;;;;;;;;;;;;;;;;5055466;28;20006;-84
2022/10/14 04:48:12;;;;;;;;;;;;;;;;;;5072060;28;19912;-85
2022/10/14 04:50:41;;;;;;;;;;;;;;;;;;5072202;28;19966;-85
2022/10/14 04:53:41;;;;;;;;;;;;;;;;;;5060876;28;19916;-84
2022/10/14 04:56:25;;;;;;;;;;;;;;;;;;5089182;28;20158;-84
2022/10/14 04:58:56;;;;;;;;;;;;;;;;;;5074706;28;20340;-83
2022/10/14 05:01:30;;;;;;;;;;;;;;;;;;5091988;28;20389;-84
2022/10/14 05:03:56;;;;;;;;;;;;;;;;;;5091699;28;19920;-84
2022/10/14 05:06:21;;;;;;;;;;;;;;;;;;5092425;28;19923;-84
2022/10/14 05:08:49;;;;;;;;;;;;;;;;;;5092090;28;20002;-84
2022/10/14 05:11:15;;;;;;;;;;;;;;;;;;5093316;28;20367;-84
2022/10/14 05:13:47;;;;;;;;;;;;;;;;;;5091415;28;19919;-85
2022/10/14 05:16:13;;;;;;;;;;;;;;;;;;5055474;28;20003;-85
2022/10/14 05:18:39;;;;;;;;;;;;;;;;;;5071685;28;19912;-84
2022/10/14 05:21:07;;;;;;;;;;;;;;;;;;5060249;28;19934;-84
2022/10/14 05:23:45;;;;;;;;;;;;;;;;;;5081455;28;19939;-83
2022/10/14 05:26:11;;;;;;;;;;;;;;;;;;5073857;28;19916;-85
2022/10/14 05:28:38;;;;;;;;;;;;;;;;;;5072963;28;20340;-84
2022/10/14 05:31:04;;;;;;;;;;;;;;;;;;5071694;28;19959;-83
2022/10/14 05:33:31;;;;;;;;;;;;;;;;;;5085671;28;19913;-83
2022/10/14 05:35:56;;;;;;;;;;;;;;;;;;5088809;28;20397;-83
2022/10/14 05:38:21;;;;;;;;;;;;;;;;;;5088129;28;20344;-83
2022/10/14 05:40:47;;;;;;;;;;;;;;;;;;5087776;28;19919;-82
2022/10/14 05:43:12;;;;;;;;;;;;;;;;;;5072413;28;19912;-82
2022/10/14 05:45:41;;;;;;;;;;;;;;;;;;5087801;28;19943;-83
2022/10/14 05:48:07;;;;;;;;;;;;;;;;;;5073874;28;20399;-82
2022/10/14 05:50:33;;;;;;;;;;;;;;;;;;5093667;28;19916;-83
2022/10/14 05:53:03;;;;;;;;;;;;;;;;;;5092321;28;19935;-83
2022/10/14 05:55:36;;;;;;;;;;;;;;;;;;5092073;28;19912;-82
2022/10/14 05:58:02;;;;;;;;;;;;;;;;;;5092790;28;19912;-83
2022/10/14 06:00:32;;;;;;;;;;;;;;;;;;5091805;28;19954;-84
2022/10/14 06:03:03;;;;;;;;;;;;;;;;;;5090975;28;19919;-85
2022/10/14 06:05:28;;;;;;;;;;;;;;;;;;5090215;28;19916;-84
2022/10/14 06:07:53;;;;;;;;;;;;;;;;;;5092031;28;20286;-85
2022/10/14 06:10:19;;;;;;;;;;;;;;;;;;5092354;28;19935;-85
2022/10/14 06:12:45;;;;;;;;;;;;;;;;;;5090685;28;19919;-85
2022/10/14 06:15:10;;;;;;;;;;;;;;;;;;5090800;28;20275;-85
2022/10/14 06:17:36;;;;;;;;;;;;;;;;;;5091024;28;19914;-84
2022/10/14 06:20:02;;;;;;;;;;;;;;;;;;5070685;28;19916;-84
2022/10/14 06:22:27;;;;;;;;;;;;;;;;;;5087270;28;19912;-84
2022/10/14 06:24:52;;;;;;;;;;;;;;;;;;5072435;28;19916;-85
2022/10/14 06:27:18;;;;;;;;;;;;;;;;;;5087464;28;19913;-85
2022/10/14 06:29:43;;;;;;;;;;;;;;;;;;5071699;28;19912;-85
2022/10/14 06:32:09;;;;;;;;;;;;;;;;;;5070501;28;19912;-84
2022/10/14 06:34:34;;;;;;;;;;;;;;;;;;5057148;28;19913;-85
2022/10/14 06:37:00;;;;;;;;;;;;;;;;;;5081536;28;20366;-86
2022/10/14 06:39:25;;;;;;;;;;;;;;;;;;5095764;28;19912;-85
2022/10/14 06:41:50;;;;;;;;;;;;;;;;;;5104585;28;19924;-84
2022/10/14 06:44:19;;;;;;;;;;;;;;;;;;5099481;28;19916;-83
2022/10/14 06:46:44;;;;;;;;;;;;;;;;;;5100667;28;19912;-84
2022/10/14 06:49:10;;;;;;;;;;;;;;;;;;5104678;28;19912;-85
2022/10/14 06:51:37;;;;;;;;;;;;;;;;;;5108439;28;19912;-82
2022/10/14 06:54:02;;;;;;;;;;;;;;;;;;5089765;28;20010;-84
2022/10/14 06:56:28;;;;;;;;;;;;;;;;;;5079413;28;19961;-87
2022/10/14 06:58:53;;;;;;;;;;;;;;;;;;5081679;28;19916;-85
2022/10/14 07:01:19;;;;;;;;;;;;;;;;;;5078409;28;19984;-85
2022/10/14 07:03:44;;;;;;;;;;;;;;;;;;5092684;28;20339;-86
2022/10/14 07:06:10;;;;;;;;;;;;;;;;;;5076440;28;20008;-87
2022/10/14 07:08:35;;;;;;;;;;;;;;;;;;5091036;28;19917;-86
2022/10/14 07:11:01;;;;;;;;;;;;;;;;;;5075826;28;19916;-85
2022/10/14 07:13:26;;;;;;;;;;;;;;;;;;5074960;28;20277;-85
2022/10/14 07:15:52;;;;;;;;;;;;;;;;;;5075126;28;19923;-84
2022/10/14 07:18:17;;;;;;;;;;;;;;;;;;5075877;28;19992;-85
2022/10/14 07:20:42;;;;;;;;;;;;;;;;;;5074452;28;19919;-86
2022/10/14 07:23:08;;;;;;;;;;;;;;;;;;5074146;28;20043;-85
2022/10/14 07:25:33;;;;;;;;;;;;;;;;;;5060589;28;20299;-85
2022/10/14 07:27:59;;;;;;;;;;;;;;;;;;5073904;28;19912;-86
2022/10/14 07:30:24;;;;;;;;;;;;;;;;;;5074368;28;20294;-85
2022/10/14 07:32:50;;;;;;;;;;;;;;;;;;5090959;28;19919;-84
2022/10/14 07:35:15;;;;;;;;;;;;;;;;;;5076789;28;19912;-83
2022/10/14 07:37:40;;;;;;;;;;;;;;;;;;5099462;28;19912;-85
2022/10/14 07:40:06;;;;;;;;;;;;;;;;;;5097918;28;19912;-86
2022/10/14 07:42:31;;;;;;;;;;;;;;;;;;5080856;28;19923;-86
2022/10/14 07:44:57;;;;;;;;;;;;;;;;;;5094169;28;20349;-85
2022/10/14 07:47:22;;;;;;;;;;;;;;;;;;5093679;28;19919;-84
2022/10/14 07:49:48;;;;;;;;;;;;;;;;;;5110431;28;19992;-83
2022/10/14 07:52:14;;;;;;;;;;;;;;;;;;5094763;28;20290;-84
2022/10/14 07:54:40;;;;;;;;;;;;;;;;;;5100895;28;20363;-84
2022/10/14 07:57:05;;;;;;;;;;;;;;;;;;5101083;28;20015;-84
2022/10/14 07:59:30;;;;;;;;;;;;;;;;;;5096270;28;20371;-86
2022/10/14 08:01:56;;;;;;;;;;;;;;;;;;5095013;28;19912;-85
2022/10/14 08:04:21;;;;;;;;;;;;;;;;;;5076528;28;19920;-86
2022/10/14 08:06:47;;;;;;;;;;;;;;;;;;5079038;28;19912;-84
2022/10/14 08:09:12;;;;;;;;;;;;;;;;;;5156104;22;19924;-88
2022/10/14 08:11:38;;;;;;;;;;;;;;;;;;5135693;28;19912;-87
2022/10/14 08:14:15;;;;;;;;;;;;;;;;;;5134331;28;20437;-87
2022/10/14 08:16:43;;;;;;;;;;;;;;;;;;5138466;28;19916;-87
2022/10/14 08:19:16;;;;;;;;;;;;;;;;;;5134444;28;19911;-88
2022/10/14 08:21:41;;;;;;;;;;;;;;;;;;5133372;28;19916;-89
2022/10/14 08:24:07;;;;;;;;;;;;;;;;;;5115132;28;19926;-88
2022/10/14 08:26:32;;;;;;;;;;;;;;;;;;5090358;28;19912;-78
2022/10/14 08:28:58;;;;;;;;;;;;;;;;;;5082658;28;20353;-76
2022/10/14 08:31:23;;;;;;;;;;;;;;;;;;5079848;28;19913;-77
2022/10/14 08:33:49;;;;;;;;;;;;;;;;;;5088249;28;19912;-76
2022/10/14 08:36:14;;;;;;;;;;;;;;;;;;5076602;28;19916;-78
2022/10/14 08:38:40;;;;;;;;;;;;;;;;;;5084521;28;19993;-78
2022/10/14 08:41:06;;;;;;;;;;;;;;;;;;5083621;28;20061;-78
2022/10/14 08:43:31;;;;;;;;;;;;;;;;;;5076811;28;20438;-77
2022/10/14 08:45:57;;;;;;;;;;;;;;;;;;5091228;28;19912;-78
2022/10/14 08:48:22;;;;;;;;;;;;;;;;;;5084865;28;20310;-78
2022/10/14 08:50:47;;;;;;;;;;;;;;;;;;5089378;28;19913;-77
2022/10/14 08:53:13;;;;;;;;;;;;;;;;;;5084068;28;19920;-78
2022/10/14 08:55:38;;;;;;;;;;;;;;;;;;5078185;28;20364;-77
2022/10/14 08:58:03;;;;;;;;;;;;;;;;;;5089802;28;20020;-76
2022/10/14 09:00:29;;;;;;;;;;;;;;;;;;5077991;28;20311;-76
2022/10/14 09:02:54;;;;;;;;;;;;;;;;;;5081613;28;19923;-78
2022/10/14 09:05:19;;;;;;;;;;;;;;;;;;5083726;28;20371;-77
2022/10/14 09:07:45;;;;;;;;;;;;;;;;;;5092529;28;20352;-77
2022/10/14 09:10:10;;;;;;;;;;;;;;;;;;5071175;28;19951;-76
2022/10/14 09:12:36;;;;;;;;;;;;;;;;;;5072560;28;19913;-74
2022/10/14 09:15:01;;;;;;;;;;;;;;;;;;5073158;28;19935;-76
2022/10/14 09:17:27;;;;;;;;;;;;;;;;;;5071463;28;19919;-79
2022/10/14 09:19:52;;;;;;;;;;;;;;;;;;5071175;28;19958;-78
2022/10/14 09:22:17;;;;;;;;;;;;;;;;;;5071123;28;20375;-77
2022/10/14 09:24:47;;;;;;;;;;;;;;;;;;5075569;28;21253;-77
2022/10/14 09:27:12;;;;;;;;;;;;;;;;;;5091140;28;19918;-77
2022/10/14 09:29:37;;;;;;;;;;;;;;;;;;5091187;28;19909;-76
2022/10/14 09:32:03;;;;;;;;;;;;;;;;;;5091625;28;20393;-78
2022/10/14 09:34:29;;;;;;;;;;;;;;;;;;5090687;28;19919;-78
2022/10/14 09:36:54;;;;;;;;;;;;;;;;;;5092455;28;20134;-76
2022/10/14 09:39:19;;;;;;;;;;;;;;;;;;5091160;28;19912;-78
2022/10/14 09:41:45;;;;;;;;;;;;;;;;;;5091542;28;20380;-75
2022/10/14 09:44:10;;;;;;;;;;;;;;;;;;5087434;28;19920;-89
2022/10/14 09:46:35;;;;;;;;;;;;;;;;;;5057392;28;19918;-88
2022/10/14 09:49:01;;;;;;;;;;;;;;;;;;5079325;28;20034;-90
2022/10/14 09:51:26;;;;;;;;;;;;;;;;;;5084298;28;19908;-90
2022/10/14 09:53:52;;;;;;;;;;;;;;;;;;5071086;28;19938;-91
2022/10/14 09:56:17;;;;;;;;;;;;;;;;;;5073614;28;19918;-89
2022/10/14 09:58:43;;;;;;;;;;;;;;;;;;5082433;28;20363;-91
2022/10/14 10:01:29;;;;;;;;;;;;;;;;;;5084568;28;19978;-89
2022/10/14 10:03:54;;;;;;;;;;;;;;;;;;5095486;28;20371;-87
2022/10/14 10:06:21;;;;;;;;;;;;;;;;;;5075550;28;19952;-89
2022/10/14 10:08:46;;;;;;;;;;;;;;;;;;5088344;28;19923;-89
2022/10/14 10:11:12;;;;;;;;;;;;;;;;;;5069969;28;19912;-90
2022/10/14 10:13:43;;;;;;;;;;;;;;;;;;5098426;28;20383;-93
2022/10/14 10:16:09;;;;;;;;;;;;;;;;;;5084633;28;19912;-93
2022/10/14 10:18:34;;;;;;;;;;;;;;;;;;5087603;28;19923;-92
2022/10/14 10:21:01;;;;;;;;;;;;;;;;;;5079325;28;19913;-90
2022/10/14 10:23:27;;;;;;;;;;;;;;;;;;5090647;28;19974;-92
2022/10/14 10:25:56;;;;;;;;;;;;;;;;;;5044847;28;19919;-88
2022/10/14 10:28:21;;;;;;;;;;;;;;;;;;5079419;28;20007;-90
2022/10/14 10:30:46;;;;;;;;;;;;;;;;;;5099187;28;20271;-89
2022/10/14 10:33:12;;;;;;;;;;;;;;;;;;5086693;28;19912;-89
2022/10/14 10:35:37;;;;;;;;;;;;;;;;;;5072788;28;19912;-90
2022/10/14 10:38:05;;;;;;;;;;;;;;;;;;5095385;28;19970;-89
2022/10/14 10:40:31;;;;;;;;;;;;;;;;;;5075437;28;20298;-88
2022/10/14 10:42:56;;;;;;;;;;;;;;;;;;5083003;28;20405;-88
2022/10/14 10:45:22;;;;;;;;;;;;;;;;;;5084514;28;19963;-89
2022/10/14 10:47:47;;;;;;;;;;;;;;;;;;5091108;28;19912;-90
2022/10/14 10:50:12;;;;;;;;;;;;;;;;;;5097488;28;20004;-91
2022/10/14 10:52:39;;;;;;;;;;;;;;;;;;5090935;28;19912;-89
2022/10/14 10:55:05;;;;;;;;;;;;;;;;;;5068180;28;19912;-89
2022/10/14 10:57:30;;;;;;;;;;;;;;;;;;5096858;28;20256;-89
2022/10/14 10:59:56;;;;;;;;;;;;;;;;;;5079296;28;20330;-89
2022/10/14 11:02:22;;;;;;;;;;;;;;;;;;5046268;28;19916;-91
2022/10/14 11:04:47;;;;;;;;;;;;;;;;;;5090368;28;20023;-89
2022/10/14 11:12:41;;;;;;;;;;;;;;;;;;5093726;28;19916;-92
2022/10/14 11:15:07;;;;;;;;;;;;;;;;;;5087310;28;20228;-89
2022/10/14 11:17:33;;;;;;;;;;;;;;;;;;5061375;28;20002;-90
2022/10/14 11:19:58;;;;;;;;;;;;;;;;;;5058545;28;19919;-91
2022/10/14 11:22:27;;;;;;;;;;;;;;;;;;5050383;28;20382;-91
2022/10/14 11:24:53;;;;;;;;;;;;;;;;;;5077414;28;19920;-89
2022/10/14 11:27:18;;;;;;;;;;;;;;;;;;5087088;28;19919;-89
2022/10/14 11:29:45;;;;;;;;;;;;;;;;;;5088715;28;19924;-90
2022/10/14 11:32:10;;;;;;;;;;;;;;;;;;5073917;28;19947;-93
2022/10/14 11:34:36;;;;;;;;;;;;;;;;;;5093455;28;19919;-88
2022/10/14 11:37:01;;;;;;;;;;;;;;;;;;5081500;28;19912;-89
2022/10/14 11:39:27;;;;;;;;;;;;;;;;;;5100065;28;19913;-88
2022/10/14 11:41:52;;;;;;;;;;;;;;;;;;5086619;28;19912;-86
2022/10/14 11:44:21;;;;;;;;;;;;;;;;;;5084265;28;19917;-88
2022/10/14 11:46:46;;;;;;;;;;;;;;;;;;5062107;28;19912;-85
2022/10/14 11:49:15;;;;;;;;;;;;;;;;;;5052009;28;19913;-82
2022/10/14 11:51:41;;;;;;;;;;;;;;;;;;5077322;28;20469;-81
2022/10/14 11:54:06;;;;;;;;;;;;;;;;;;5092795;28;19912;-83
2022/10/14 11:56:32;;;;;;;;;;;;;;;;;;5073491;28;19915;-81
2022/10/14 12:01:44;;;;;;;;;;;;;;;;;;5076899;28;19912;-82
2022/10/14 12:04:24;;;;;;;;;;;;;;;;;;5095527;28;19958;-83
2022/10/14 12:06:50;;;;;;;;;;;;;;;;;;5090672;28;19912;-81
2022/10/14 12:09:16;;;;;;;;;;;;;;;;;;5078373;28;19931;-86
2022/10/14 12:11:41;;;;;;;;;;;;;;;;;;5072485;28;20380;-82
2022/10/14 12:14:07;;;;;;;;;;;;;;;;;;5060796;28;20391;-81
2022/10/14 12:16:33;;;;;;;;;;;;;;;;;;5093993;28;19912;-82
2022/10/14 12:18:58;;;;;;;;;;;;;;;;;;5081631;28;19917;-82
2022/10/14 12:21:29;;;;;;;;;;;;;;;;;;5056809;28;19913;-80
2022/10/14 12:23:54;;;;;;;;;;;;;;;;;;5092734;28;19973;-82
2022/10/14 12:26:20;;;;;;;;;;;;;;;;;;5079915;28;19959;-82
2022/10/14 12:28:45;;;;;;;;;;;;;;;;;;5093436;28;20282;-82
2022/10/14 12:31:11;;;;;;;;;;;;;;;;;;5080767;28;19952;-83
2022/10/14 12:33:37;;;;;;;;;;;;;;;;;;5072199;28;19912;-83
2022/10/14 12:36:02;;;;;;;;;;;;;;;;;;5087826;28;20344;-82
2022/10/14 12:38:27;;;;;;;;;;;;;;;;;;5073249;28;19920;-81
2022/10/14 12:40:55;;;;;;;;;;;;;;;;;;5083389;28;20004;-84
2022/10/14 12:43:22;;;;;;;;;;;;;;;;;;5077535;28;20001;-81
2022/10/14 12:45:47;;;;;;;;;;;;;;;;;;5090484;28;19928;-81
2022/10/14 12:48:13;;;;;;;;;;;;;;;;;;5086995;28;20330;-82
2022/10/14 12:50:38;;;;;;;;;;;;;;;;;;5081793;28;19912;-81
2022/10/14 12:53:03;;;;;;;;;;;;;;;;;;5078316;28;19913;-80
2022/10/14 12:55:31;;;;;;;;;;;;;;;;;;5087960;28;20410;-82
2022/10/14 12:57:56;;;;;;;;;;;;;;;;;;5093416;28;19913;-89
2022/10/14 13:00:21;;;;;;;;;;;;;;;;;;5085987;28;19917;-89
2022/10/14 13:02:47;;;;;;;;;;;;;;;;;;5083773;28;19912;-88
2022/10/14 13:05:12;;;;;;;;;;;;;;;;;;5081234;28;19916;-88
2022/10/14 13:07:38;;;;;;;;;;;;;;;;;;5080689;28;19950;-88
2022/10/14 13:10:03;;;;;;;;;;;;;;;;;;5100991;28;20417;-90
2022/10/14 13:12:30;;;;;;;;;;;;;;;;;;5071117;28;19912;-87
2022/10/14 13:14:57;;;;;;;;;;;;;;;;;;5099238;28;20282;-89
2022/10/14 13:17:22;;;;;;;;;;;;;;;;;;5066448;28;19913;-82
2022/10/14 13:19:48;;;;;;;;;;;;;;;;;;5087627;28;19935;-80
2022/10/14 13:22:13;;;;;;;;;;;;;;;;;;5074984;28;19955;-81
2022/10/14 13:24:40;;;;;;;;;;;;;;;;;;5080852;28;19916;-82
2022/10/14 13:27:06;;;;;;;;;;;;;;;;;;5079392;28;19912;-82
2022/10/14 13:29:31;;;;;;;;;;;;;;;;;;5089581;28;19920;-80
2022/10/14 13:31:57;;;;;;;;;;;;;;;;;;5080307;28;20273;-82
2022/10/14 13:34:22;;;;;;;;;;;;;;;;;;5098538;28;19912;-81
2022/10/14 13:36:48;;;;;;;;;;;;;;;;;;5089313;28;20417;-81
2022/10/14 13:39:14;;;;;;;;;;;;;;;;;;5097585;28;19912;-82
2022/10/14 13:41:39;;;;;;;;;;;;;;;;;;5080066;28;19912;-82
2022/10/14 13:44:05;;;;;;;;;;;;;;;;;;5081905;28;19920;-82
2022/10/14 13:46:30;;;;;;;;;;;;;;;;;;5093853;28;19912;-82
2022/10/14 13:48:56;;;;;;;;;;;;;;;;;;5091001;28;20409;-82
2022/10/14 13:51:21;;;;;;;;;;;;;;;;;;5075802;28;19913;-84
2022/10/14 13:53:49;;;;;;;;;;;;;;;;;;5090010;28;19908;-80
2022/10/14 13:56:15;;;;;;;;;;;;;;;;;;5086523;28;19913;-82
2022/10/14 13:58:40;;;;;;;;;;;;;;;;;;5081807;28;19956;-81
2022/10/14 14:01:07;;;;;;;;;;;;;;;;;;5079136;28;19912;-80
2022/10/14 14:03:33;;;;;;;;;;;;;;;;;;5088643;28;19918;-80
2022/10/14 14:05:58;;;;;;;;;;;;;;;;;;5074209;28;20367;-79
2022/10/14 14:08:23;;;;;;;;;;;;;;;;;;5084324;28;19912;-79
2022/10/14 14:10:49;;;;;;;;;;;;;;;;;;5084904;28;19956;-77
2022/10/14 14:13:14;;;;;;;;;;;;;;;;;;5081500;28;20345;-77
2022/10/14 14:15:39;;;;;;;;;;;;;;;;;;5088218;28;19912;-77
2022/10/14 14:18:05;;;;;;;;;;;;;;;;;;5079975;28;19912;-76
2022/10/14 14:20:32;;;;;;;;;;;;;;;;;;5071785;28;20356;-78
2022/10/14 14:22:58;;;;;;;;;;;;;;;;;;5082944;28;19961;-78
2022/10/14 14:25:23;;;;;;;;;;;;;;;;;;5058133;28;19917;-77
2022/10/14 14:27:52;;;;;;;;;;;;;;;;;;5087533;28;20634;-79
2022/10/14 14:30:17;;;;;;;;;;;;;;;;;;5076052;28;20429;-78
2022/10/14 14:32:42;;;;;;;;;;;;;;;;;;5090603;28;20291;-78
2022/10/14 14:35:08;;;;;;;;;;;;;;;;;;5091349;28;19965;-78
2022/10/14 14:37:33;;;;;;;;;;;;;;;;;;5072740;28;20008;-78
2022/10/14 14:39:59;;;;;;;;;;;;;;;;;;5069104;28;19923;-77
2022/10/14 14:42:24;;;;;;;;;;;;;;;;;;5077756;28;19927;-78
2022/10/14 14:44:49;;;;;;;;;;;;;;;;;;5073002;28;19924;-79
2022/10/14 14:47:15;;;;;;;;;;;;;;;;;;5074997;28;20449;-80
2022/10/14 14:49:40;;;;;;;;;;;;;;;;;;5087900;28;20046;-79
2022/10/14 14:52:05;;;;;;;;;;;;;;;;;;5072537;28;19913;-88
2022/10/14 14:54:31;;;;;;;;;;;;;;;;;;5058078;28;19935;-90
2022/10/14 14:56:56;;;;;;;;;;;;;;;;;;5072707;28;20270;-88
2022/10/14 14:59:22;;;;;;;;;;;;;;;;;;5068911;28;19954;-79
2022/10/14 15:01:47;;;;;;;;;;;;;;;;;;5074442;28;19973;-77
2022/10/14 15:04:13;;;;;;;;;;;;;;;;;;5080525;28;19923;-78
2022/10/14 15:06:38;;;;;;;;;;;;;;;;;;5085798;28;20436;-79
2022/10/14 15:09:03;;;;;;;;;;;;;;;;;;5087869;28;19955;-77
2022/10/14 15:11:29;;;;;;;;;;;;;;;;;;5078289;28;19917;-79
2022/10/14 15:13:54;;;;;;;;;;;;;;;;;;5088708;28;19916;-79
2022/10/14 15:16:20;;;;;;;;;;;;;;;;;;5077589;28;20475;-79
2022/10/14 15:18:45;;;;;;;;;;;;;;;;;;5081301;28;20272;-80
2022/10/14 15:21:11;;;;;;;;;;;;;;;;;;5097594;28;19919;-79
2022/10/14 15:23:36;;;;;;;;;;;;;;;;;;5092361;28;19912;-78
2022/10/14 15:26:02;;;;;;;;;;;;;;;;;;5078404;28;20290;-78
2022/10/14 15:28:29;;;;;;;;;;;;;;;;;;5089369;28;19912;-78
2022/10/14 15:30:56;;;;;;;;;;;;;;;;;;5085391;28;19911;-78
2022/10/14 15:33:22;;;;;;;;;;;;;;;;;;5092586;28;19965;-78
2022/10/14 15:35:49;;;;;;;;;;;;;;;;;;5077505;28;20383;-78
2022/10/14 15:38:14;;;;;;;;;;;;;;;;;;5088116;28;19920;-77
2022/10/14 15:40:40;;;;;;;;;;;;;;;;;;5083409;28;20326;-75
2022/10/14 15:43:05;;;;;;;;;;;;;;;;;;5080616;28;19962;-77
2022/10/14 15:45:30;;;;;;;;;;;;;;;;;;5089209;28;20379;-77
2022/10/14 15:47:56;;;;;;;;;;;;;;;;;;5075726;28;19947;-77
2022/10/14 15:50:21;;;;;;;;;;;;;;;;;;5086682;28;20259;-77
2022/10/14 15:52:52;;;;;;;;;;;;;;;;;;5084017;28;19955;-79
2022/10/14 15:55:18;;;;;;;;;;;;;;;;;;5077789;28;19963;-75
2022/10/14 15:57:43;;;;;;;;;;;;;;;;;;5090094;28;20474;-77
2022/10/14 16:00:09;;;;;;;;;;;;;;;;;;5078608;28;19963;-76
2022/10/14 16:02:37;;;;;;;;;;;;;;;;;;5084824;28;20233;-83
2022/10/14 16:05:05;;;;;;;;;;;;;;;;;;5085266;28;19927;-76
2022/10/14 16:07:31;;;;;;;;;;;;;;;;;;5057761;28;19916;-76
2022/10/14 16:09:56;;;;;;;;;;;;;;;;;;5076169;28;19963;-76
2022/10/14 16:12:22;;;;;;;;;;;;;;;;;;5085390;28;20016;-77
2022/10/14 16:14:47;;;;;;;;;;;;;;;;;;5085888;28;20383;-77
2022/10/14 16:17:13;;;;;;;;;;;;;;;;;;5085090;28;19935;-76
2022/10/14 16:19:39;;;;;;;;;;;;;;;;;;5108252;28;19966;-89
2022/10/14 16:22:06;;;;;;;;;;;;;;;;;;5107066;28;19930;-94
2022/10/14 16:27:15;;;;;;;;;;;;;;;;;;5284920;22;20014;-92
2022/10/14 16:29:40;;;;;;;;;;;;;;;;;;5113206;28;19916;-94
2022/10/14 16:32:06;;;;;;;;;;;;;;;;;;5112984;28;20080;-92
2022/10/14 16:34:34;;;;;;;;;;;;;;;;;;5107327;28;19908;-91
2022/10/14 16:37:00;;;;;;;;;;;;;;;;;;5100042;28;20408;-92
2022/10/14 16:39:25;;;;;;;;;;;;;;;;;;5084043;28;19919;-91
2022/10/14 16:41:58;;;;;;;;;;;;;;;;;;5069384;28;19920;-92
2022/10/14 16:44:33;;;;;;;;;;;;;;;;;;5074711;28;19924;-92
2022/10/14 16:47:21;;;;;;;;;;;;;;;;;;5051203;28;19996;-90
2022/10/14 16:49:54;;;;;;;;;;;;;;;;;;5066064;28;19916;-92
2022/10/14 16:52:22;;;;;;;;;;;;;;;;;;5063343;28;19969;-92